CheckWX is a tool to help pilots better visualize weather data.  It is not intended as a substitute for an official pre-flight weather briefing.

01:10:17 UTC

KBHB METAR
Hancock County-Bar Harbor Airport
Bar Harbor, Maine, USA
Current

14 mins ago

KBHB 190056Z AUTO 18021G28KT 10SM -RA SCT019 SCT024 OVC036 06/04 A3008 RMK AO2 PK WND 18028/0055 SLP189 P0001 T00610039
Observed
Apr-19 @ 00:56 UTC
Wind
  • 180° at 21 KTS
  • Gusting to 28 KTS
Visibility
10 SM
Flight Rules
VFR
Conditions
Light Rain
Cloud Levels
  • Scattered at 1,900' AGL
  • Scattered at 2,400' AGL
  • Overcast at 3,600' AGL
Temperature
C / 43°F
Dewpoint
C / 39°F
Humidity
87%
Altimeter
30.08" Hg
Pressure
1018.9 hPa
Current Rain
0.01"
Previous

1 hour ago

KBHB 182356Z AUTO 18016KT 10SM -RA OVC050 06/02 A3010 RMK AO2 RAB40 PRESFR SLP198 P0000 60000 T00610022 10078 20050 400941039 58035
Observed
Apr-18 @ 23:56 UTC
Wind
  • 180° at 16 KTS
Visibility
10 SM
Flight Rules
VFR
Conditions
Light Rain
Cloud Levels
  • Overcast at 5,000' AGL
Temperature
C / 43°F
Dewpoint
C / 36°F
Humidity
76%
Altimeter
30.1" Hg
Pressure
1019.8 hPa
Current Rain
0.01"
Previous

3 hours ago

KBHB 182156Z AUTO 19015KT 10SM OVC060 06/00 A3018 RMK AO2 SLP223 T00610000
Observed
Apr-18 @ 21:56 UTC
Wind
  • 190° at 15 KTS
Visibility
10 SM
Flight Rules
VFR
Cloud Levels
  • Overcast at 6,000' AGL
Temperature
C / 43°F
Dewpoint
C / 32°F
Humidity
66%
Altimeter
30.18" Hg
Pressure
1022.3 hPa